createdAt,value
2019-04-21T00:01:30.706Z,13.47
2019-04-21T00:04:11.320Z,13.28
2019-04-21T00:07:01.218Z,12.85
2019-04-21T00:09:41.115Z,14.73
2019-04-21T00:12:13.996Z,13.00
2019-04-21T00:14:39.680Z,13.08
2019-04-21T00:17:15.690Z,13.62
2019-04-21T00:20:05.550Z,12.95
2019-04-21T00:22:41.385Z,13.13
2019-04-21T00:25:19.133Z,14.05
2019-04-21T00:27:58.367Z,15.58
2019-04-21T00:30:40.060Z,15.85
2019-04-21T00:33:04.572Z,13.48
2019-04-21T00:35:31.205Z,14.78
2019-04-21T00:38:26.224Z,14.40
2019-04-21T00:41:00.459Z,14.33
2019-04-21T00:43:35.128Z,16.75
2019-04-21T00:46:03.253Z,14.05
2019-04-21T00:48:49.303Z,14.03
2019-04-21T00:51:33.378Z,14.50
2019-04-21T00:54:12.866Z,13.15
2019-04-21T00:56:45.587Z,13.75
2019-04-21T00:59:13.959Z,13.95
2019-04-21T01:01:47.730Z,13.88
2019-04-21T01:04:31.846Z,12.98
2019-04-21T01:07:02.956Z,13.60
2019-04-21T01:09:32.754Z,13.83
2019-04-21T01:12:12.266Z,14.28
2019-04-21T01:14:55.435Z,14.47
2019-04-21T01:17:27.726Z,14.10
2019-04-21T01:19:57.249Z,13.95
2019-04-21T01:22:17.638Z,14.53
2019-04-21T01:25:01.318Z,13.98
2019-04-21T01:27:50.745Z,14.63
2019-04-21T01:30:23.743Z,15.70
2019-04-21T01:32:59.986Z,15.23
2019-04-21T01:35:32.978Z,16.05
2019-04-21T01:38:19.095Z,17.45
2019-04-21T01:40:56.747Z,16.97
2019-04-21T01:43:24.965Z,16.27
2019-04-21T01:45:59.248Z,17.07
2019-04-21T01:48:31.938Z,16.52
2019-04-21T01:51:05.331Z,14.78
2019-04-21T01:57:07.555Z,14.80
2019-04-21T01:59:41.620Z,14.53
2019-04-21T02:02:26.594Z,14.35
2019-04-21T02:05:07.056Z,15.48
2019-04-21T02:07:33.909Z,13.30
2019-04-21T02:10:18.129Z,13.93
2019-04-21T02:12:51.247Z,15.10
2019-04-21T02:17:59.701Z,14.03
2019-04-21T02:20:26.899Z,13.00
2019-04-21T02:23:31.866Z,13.93
2019-04-21T02:25:50.892Z,13.28
2019-04-21T02:28:29.794Z,13.28
2019-04-21T02:33:58.502Z,12.33
2019-04-21T02:44:10.107Z,14.47
2019-04-21T02:46:42.526Z,12.85
2019-04-21T02:52:02.117Z,13.63
2019-04-21T02:54:49.145Z,14.15
2019-04-21T02:57:23.165Z,13.75
2019-04-21T03:00:04.238Z,12.90
2019-04-21T03:08:25.420Z,12.73
2019-04-21T03:11:04.738Z,13.25
2019-04-21T03:16:16.974Z,13.65
2019-04-21T03:21:22.098Z,13.15
2019-04-21T03:26:36.316Z,15.28
2019-04-21T03:29:12.142Z,15.45
2019-04-21T03:39:39.530Z,13.10
2019-04-21T03:42:19.694Z,12.80
2019-04-21T03:44:49.206Z,13.18
2019-04-21T03:47:23.443Z,15.00
2019-04-21T03:50:08.868Z,13.08
2019-04-21T03:52:39.054Z,14.50
2019-04-21T04:01:05.548Z,14.73
2019-04-21T04:04:08.408Z,15.60
2019-04-21T04:06:57.102Z,16.20
2019-04-21T04:09:37.470Z,16.45
2019-04-21T04:12:06.580Z,16.05
2019-04-21T04:22:37.994Z,16.73
2019-04-21T04:25:18.860Z,17.92
2019-04-21T04:30:25.356Z,16.32
2019-04-21T04:32:46.338Z,16.02
2019-04-21T04:35:48.962Z,16.50
2019-04-21T04:38:12.979Z,16.62
2019-04-21T04:41:06.360Z,16.62
2019-04-21T04:43:33.023Z,17.02
2019-04-21T04:46:20.292Z,17.32
2019-04-21T04:49:06.082Z,17.37
2019-04-21T04:51:48.065Z,16.82
2019-04-21T04:54:06.719Z,17.20
2019-04-21T04:56:54.352Z,16.97
2019-04-21T04:59:41.479Z,17.40
2019-04-21T05:02:12.367Z,16.60
2019-04-21T05:04:45.750Z,16.15
2019-04-21T05:07:16.935Z,16.27
2019-04-21T05:09:59.472Z,17.32
2019-04-21T05:12:24.835Z,17.60
2019-04-21T05:14:59.371Z,17.07
2019-04-21T05:20:11.762Z,16.70
2019-04-21T05:22:42.643Z,17.32
2019-04-21T05:25:16.996Z,17.15
2019-04-21T05:27:49.026Z,15.43
2019-04-21T05:30:40.478Z,14.78
2019-04-21T05:33:57.806Z,14.13
2019-04-21T05:36:45.931Z,14.40
2019-04-21T05:39:26.206Z,15.20
2019-04-21T05:41:54.232Z,13.93
2019-04-21T05:44:56.367Z,13.38
2019-04-21T05:50:07.536Z,14.38
2019-04-21T05:52:51.389Z,16.37
2019-04-21T05:58:08.462Z,16.07
2019-04-21T06:03:42.720Z,17.05
2019-04-21T06:06:16.446Z,15.55
2019-04-21T06:08:42.420Z,15.18
2019-04-21T06:11:21.009Z,15.43
2019-04-21T06:16:40.348Z,15.50
2019-04-21T06:19:05.207Z,15.18
2019-04-21T06:21:45.467Z,15.83
2019-04-21T06:24:15.989Z,15.35
2019-04-21T06:29:30.170Z,15.60
2019-04-21T06:35:04.450Z,15.48
2019-04-21T06:42:52.694Z,15.32
2019-04-21T06:45:21.681Z,15.03
2019-04-21T06:47:57.424Z,14.15
2019-04-21T06:50:35.242Z,13.95
2019-04-21T06:53:11.999Z,14.45
2019-04-21T06:55:37.013Z,14.30
2019-04-21T06:58:22.432Z,14.03
2019-04-21T07:00:55.912Z,13.35
2019-04-21T07:03:34.593Z,13.65
2019-04-21T07:06:08.021Z,13.28
2019-04-21T07:08:55.320Z,14.13
2019-04-21T07:11:20.617Z,15.00
2019-04-21T07:14:13.588Z,12.95
2019-04-21T07:16:36.326Z,13.60
2019-04-21T07:19:18.508Z,14.07
2019-04-21T07:21:48.314Z,13.30
2019-04-21T07:26:57.145Z,13.65
2019-04-21T07:29:34.742Z,13.95
2019-04-21T07:32:09.349Z,14.23
2019-04-21T07:34:49.840Z,13.15
2019-04-21T07:37:19.710Z,13.85
2019-04-21T07:39:51.219Z,14.37
2019-04-21T07:42:28.171Z,14.60
2019-04-21T07:44:57.698Z,12.05
2019-04-21T07:47:53.447Z,12.00
2019-04-21T07:50:47.131Z,12.35
2019-04-21T07:53:34.487Z,14.18
2019-04-21T07:55:53.303Z,13.32
2019-04-21T07:58:51.709Z,12.45
2019-04-21T08:01:28.972Z,13.68
2019-04-21T08:03:59.454Z,13.50
2019-04-21T08:06:38.835Z,13.83
2019-04-21T08:09:09.108Z,13.55
2019-04-21T08:11:37.058Z,13.08
2019-04-21T08:14:24.008Z,13.85
2019-04-21T08:16:57.186Z,13.70
2019-04-21T08:19:32.207Z,14.07
2019-04-21T08:22:11.270Z,13.58
2019-04-21T08:24:50.337Z,13.60
2019-04-21T08:27:32.384Z,13.40
2019-04-21T08:29:58.363Z,11.68
2019-04-21T08:32:49.919Z,11.93
2019-04-21T08:35:34.277Z,11.70
2019-04-21T08:37:43.418Z,12.18
2019-04-21T08:40:33.112Z,12.78
2019-04-21T08:43:00.179Z,12.15
2019-04-21T08:45:41.505Z,11.90
2019-04-21T08:48:19.035Z,11.73
2019-04-21T08:50:53.964Z,12.18
2019-04-21T08:53:33.997Z,11.25
2019-04-21T08:56:21.704Z,11.70
2019-04-21T08:59:10.919Z,10.75
2019-04-21T09:01:55.290Z,11.93
2019-04-21T09:04:33.694Z,11.20
2019-04-21T09:07:12.835Z,12.05
2019-04-21T09:09:47.418Z,11.93
2019-04-21T09:12:25.270Z,11.70
2019-04-21T09:15:01.249Z,11.88
2019-04-21T09:17:28.621Z,10.32
2019-04-21T09:20:16.976Z,10.60
2019-04-21T09:22:50.639Z,10.23
2019-04-21T09:25:33.501Z,11.45
2019-04-21T09:28:02.296Z,11.40
2019-04-21T09:30:19.781Z,11.22
2019-04-21T09:32:56.851Z,10.68
2019-04-21T09:35:29.803Z,11.50
2019-04-21T09:38:16.030Z,11.12
2019-04-21T09:40:45.515Z,12.33
2019-04-21T09:43:27.281Z,12.33
2019-04-21T09:45:51.960Z,11.50
2019-04-21T09:48:28.561Z,11.53
2019-04-21T09:51:06.545Z,11.40
2019-04-21T09:53:43.361Z,11.50
2019-04-21T09:56:31.473Z,12.20
2019-04-21T09:59:05.498Z,12.05
2019-04-21T10:01:44.929Z,12.18
2019-04-21T10:04:07.679Z,11.43
2019-04-21T10:06:45.271Z,11.48
2019-04-21T10:09:21.753Z,11.22
2019-04-21T10:11:57.020Z,12.00
2019-04-21T10:14:33.046Z,13.25
2019-04-21T10:17:39.497Z,12.20
2019-04-21T10:20:14.711Z,11.12
2019-04-21T10:22:53.004Z,12.78
2019-04-21T10:25:28.254Z,11.90
2019-04-21T10:28:05.246Z,11.15
2019-04-21T10:30:40.704Z,11.90
2019-04-21T10:33:16.572Z,11.43
2019-04-21T10:35:50.866Z,11.53
2019-04-21T10:38:36.622Z,11.70
2019-04-21T10:41:01.746Z,11.33
2019-04-21T10:43:37.462Z,11.07
2019-04-21T10:46:16.924Z,11.33
2019-04-21T10:48:50.562Z,11.48
2019-04-21T10:51:25.441Z,11.63
2019-04-21T10:54:02.240Z,12.68
2019-04-21T10:56:41.799Z,11.83
2019-04-21T10:59:12.450Z,12.45
2019-04-21T11:01:47.149Z,12.90
2019-04-21T11:04:36.727Z,13.05
2019-04-21T11:07:31.916Z,12.63
2019-04-21T11:10:04.361Z,11.75
2019-04-21T11:12:39.729Z,13.45
2019-04-21T11:15:14.824Z,12.55
2019-04-21T11:17:50.545Z,12.58
2019-04-21T11:20:24.837Z,12.78
2019-04-21T11:22:59.648Z,13.88
2019-04-21T11:25:33.747Z,13.48
2019-04-21T11:28:08.974Z,12.87
2019-04-21T11:30:44.714Z,12.10
2019-04-21T11:33:19.606Z,12.88
2019-04-21T11:35:55.163Z,12.78
2019-04-21T11:38:59.769Z,12.25
2019-04-21T11:41:16.043Z,12.85
2019-04-21T11:43:52.951Z,13.25
2019-04-21T11:46:28.557Z,13.97
2019-04-21T11:49:04.304Z,12.82
2019-04-21T11:51:38.483Z,12.63
2019-04-21T11:54:14.950Z,13.75
2019-04-21T11:56:50.583Z,12.85
2019-04-21T11:59:25.854Z,14.28
2019-04-21T12:02:01.563Z,12.60
2019-04-21T12:04:36.802Z,13.43
2019-04-21T12:07:11.551Z,14.10
2019-04-21T12:09:46.212Z,13.70
2019-04-21T12:12:21.457Z,13.98
2019-04-21T12:14:55.964Z,14.10
2019-04-21T12:17:30.323Z,14.15
2019-04-21T12:20:06.438Z,13.70
2019-04-21T12:22:41.643Z,13.88
2019-04-21T12:25:18.729Z,14.30
2019-04-21T12:27:54.120Z,14.38
2019-04-21T12:30:29.386Z,14.87
2019-04-21T12:33:26.110Z,14.05
2019-04-21T12:36:01.801Z,15.45
2019-04-21T12:38:44.667Z,16.48
2019-04-21T12:41:12.876Z,16.35
2019-04-21T12:43:48.579Z,15.38
2019-04-21T12:46:22.688Z,16.52
2019-04-21T12:48:58.297Z,14.75
2019-04-21T12:51:33.737Z,15.08
2019-04-21T12:54:08.232Z,14.87
2019-04-21T12:56:43.326Z,13.78
2019-04-21T12:59:19.084Z,14.93
2019-04-21T13:01:54.841Z,14.10
2019-04-21T13:04:31.356Z,14.00
2019-04-21T13:07:07.669Z,14.00
2019-04-21T13:09:42.303Z,13.88
2019-04-21T13:12:17.279Z,14.28
2019-04-21T13:14:54.734Z,13.55
2019-04-21T13:17:28.413Z,14.28
2019-04-21T13:20:03.459Z,14.77
2019-04-21T13:22:39.677Z,14.60
2019-04-21T13:25:15.937Z,13.22
2019-04-21T13:27:50.491Z,14.65
2019-04-21T13:30:26.311Z,13.68
2019-04-21T13:33:03.067Z,14.25
2019-04-21T13:35:39.028Z,14.07
2019-04-21T13:38:23.146Z,14.45
2019-04-21T13:41:22.678Z,14.60
2019-04-21T13:43:47.402Z,13.53
2019-04-21T13:46:22.800Z,14.43
2019-04-21T13:48:59.545Z,15.05
2019-04-21T13:51:34.140Z,14.25
2019-04-21T13:54:09.514Z,14.18
2019-04-21T13:56:46.773Z,12.82
2019-04-21T13:59:22.474Z,13.85
2019-04-21T14:01:58.376Z,12.82
2019-04-21T14:04:35.635Z,13.18
2019-04-21T14:07:10.191Z,14.03
2019-04-21T14:09:54.841Z,13.45
2019-04-21T14:12:21.260Z,13.48
2019-04-21T14:14:56.933Z,13.13
2019-04-21T14:17:34.985Z,13.83
2019-04-21T14:20:09.469Z,13.70
2019-04-21T14:22:44.279Z,13.95
2019-04-21T14:25:21.623Z,14.30
2019-04-21T14:27:57.846Z,15.55
2019-04-21T14:30:32.529Z,13.90
2019-04-21T14:33:07.933Z,14.35
2019-04-21T14:35:43.062Z,14.73
2019-04-21T14:38:18.579Z,13.22
2019-04-21T14:40:54.413Z,14.98
2019-04-21T14:43:30.071Z,14.38
2019-04-21T14:46:19.408Z,12.98
2019-04-21T14:49:12.960Z,14.07
2019-04-21T14:51:58.909Z,14.68
2019-04-21T14:55:01.104Z,14.98
2019-04-21T14:57:36.826Z,14.75
2019-04-21T15:00:13.581Z,13.65
2019-04-21T15:02:52.006Z,14.33
2019-04-21T15:05:31.343Z,13.98
2019-04-21T15:08:07.441Z,15.00
2019-04-21T15:10:47.443Z,14.15
2019-04-21T15:13:23.707Z,15.00
2019-04-21T15:15:58.203Z,16.05
2019-04-21T15:18:32.879Z,15.95
2019-04-21T15:21:07.785Z,14.80
2019-04-21T15:23:42.428Z,15.72
2019-04-21T15:26:17.930Z,17.27
2019-04-21T15:28:52.950Z,15.75
2019-04-21T15:31:33.975Z,15.88
2019-04-21T15:34:05.289Z,15.65
2019-04-21T15:36:42.061Z,14.35
2019-04-21T15:39:17.351Z,13.88
2019-04-21T15:41:52.431Z,14.73
2019-04-21T15:44:27.228Z,15.23
2019-04-21T15:47:02.021Z,15.03
2019-04-21T15:50:03.640Z,13.88
2019-04-21T15:52:34.126Z,15.27
2019-04-21T15:55:23.214Z,13.98
2019-04-21T15:58:12.289Z,13.53
2019-04-21T16:01:18.678Z,13.98
2019-04-21T16:03:57.435Z,14.70
2019-04-21T16:06:31.797Z,14.10
2019-04-21T16:09:06.552Z,14.40
2019-04-21T16:11:43.939Z,13.33
2019-04-21T16:14:18.729Z,14.03
2019-04-21T16:16:53.902Z,14.03
2019-04-21T16:19:29.301Z,13.45
2019-04-21T16:22:06.457Z,12.95
2019-04-21T16:24:43.971Z,14.20
2019-04-21T16:27:17.425Z,12.95
2019-04-21T16:29:53.961Z,13.15
2019-04-21T16:32:28.589Z,12.60
2019-04-21T16:35:08.395Z,12.82
2019-04-21T16:37:39.680Z,12.93
2019-04-21T16:40:14.222Z,11.80
2019-04-21T16:42:49.997Z,12.80
2019-04-21T16:45:26.343Z,12.33
2019-04-21T16:48:01.125Z,11.65
2019-04-21T16:50:34.968Z,12.43
2019-04-21T16:53:17.045Z,12.33
2019-04-21T16:55:55.124Z,12.18
2019-04-21T16:58:42.969Z,11.90
2019-04-21T17:01:22.392Z,11.43
2019-04-21T17:03:58.342Z,11.88
2019-04-21T17:06:33.245Z,12.82
2019-04-21T17:09:08.625Z,11.78
2019-04-21T17:11:44.667Z,12.20
2019-04-21T17:14:39.301Z,12.98
2019-04-21T17:17:20.637Z,12.73
2019-04-21T17:19:39.843Z,13.00
2019-04-21T17:22:07.866Z,12.23
2019-04-21T17:24:42.451Z,12.75
2019-04-21T17:27:17.416Z,11.68
2019-04-21T17:29:54.772Z,11.93
2019-04-21T17:32:34.379Z,11.35
2019-04-21T17:35:06.041Z,11.45
2019-04-21T17:37:40.671Z,11.30
2019-04-21T17:40:15.652Z,11.70
2019-04-21T17:42:56.666Z,11.30
2019-04-21T17:45:26.836Z,11.05
2019-04-21T17:48:06.014Z,12.43
2019-04-21T17:50:56.093Z,12.05
2019-04-21T17:53:51.372Z,11.83
2019-04-21T17:56:55.237Z,11.03
2019-04-21T17:59:36.286Z,12.03
2019-04-21T18:01:59.260Z,12.25
2019-04-21T18:04:31.051Z,11.35
2019-04-21T18:07:26.366Z,11.80
2019-04-21T18:10:29.079Z,11.00
2019-04-21T18:12:42.553Z,10.55
2019-04-21T18:15:13.530Z,10.93
2019-04-21T18:17:30.621Z,10.15
2019-04-21T18:20:05.862Z,10.72
2019-04-21T18:23:02.428Z,11.28
2019-04-21T18:25:47.178Z,10.68
2019-04-21T18:28:15.018Z,10.80
2019-04-21T18:30:58.045Z,10.90
2019-04-21T18:33:37.062Z,11.12
2019-04-21T18:36:38.382Z,11.73
2019-04-21T18:39:49.567Z,11.25
2019-04-21T18:42:47.922Z,12.40
2019-04-21T18:45:51.876Z,12.13
2019-04-21T18:48:20.535Z,11.43
2019-04-21T18:51:10.339Z,11.05
2019-04-21T18:54:06.282Z,11.45
2019-04-21T18:56:23.666Z,11.08
2019-04-21T18:58:58.326Z,11.00
2019-04-21T19:01:35.236Z,11.65
2019-04-21T19:04:14.349Z,11.28
2019-04-21T19:07:02.974Z,11.18
2019-04-21T19:10:03.527Z,11.12
2019-04-21T19:12:16.234Z,11.30
2019-04-21T19:14:52.500Z,12.33
2019-04-21T19:20:18.282Z,12.10
2019-04-21T19:22:36.970Z,11.68
2019-04-21T19:25:25.654Z,11.53
2019-04-21T19:27:49.780Z,12.10
2019-04-21T19:30:38.518Z,11.08
2019-04-21T19:33:04.245Z,11.10
2019-04-21T19:35:23.598Z,11.45
2019-04-21T19:38:04.712Z,11.40
2019-04-21T19:40:53.105Z,11.80
2019-04-21T19:43:31.829Z,11.25
2019-04-21T19:46:04.362Z,11.30
2019-04-21T19:48:44.830Z,11.40
2019-04-21T19:51:15.170Z,11.73
2019-04-21T19:53:44.631Z,11.60
2019-04-21T19:56:11.973Z,11.75
2019-04-21T19:58:47.966Z,11.65
2019-04-21T20:01:23.556Z,12.28
2019-04-21T20:04:01.016Z,12.00
2019-04-21T20:06:48.309Z,11.80
2019-04-21T20:09:28.281Z,11.18
2019-04-21T20:17:11.416Z,12.60
2019-04-21T20:19:34.195Z,12.33
2019-04-21T20:22:11.398Z,12.43
2019-04-21T20:24:56.455Z,12.40
2019-04-21T20:27:36.349Z,12.18
2019-04-21T20:30:15.576Z,12.70
2019-04-21T20:33:03.252Z,11.73
2019-04-21T20:35:42.944Z,11.80
2019-04-21T20:38:05.147Z,12.20
2019-04-21T20:40:34.720Z,11.57
2019-04-21T20:43:21.309Z,12.85
2019-04-21T20:46:01.042Z,11.83
2019-04-21T20:48:20.996Z,11.63
2019-04-21T20:51:06.576Z,11.93
2019-04-21T20:53:38.035Z,11.85
2019-04-21T20:56:11.118Z,11.38
2019-04-21T20:58:50.414Z,11.38
2019-04-21T21:03:57.917Z,12.03
2019-04-21T21:06:38.507Z,11.35
2019-04-21T21:09:09.883Z,10.90
2019-04-21T21:11:56.759Z,11.80
2019-04-21T21:14:25.232Z,11.50
2019-04-21T21:17:03.639Z,11.45
2019-04-21T21:19:40.088Z,11.40
2019-04-21T21:22:08.281Z,11.53
2019-04-21T21:24:53.458Z,11.22
2019-04-21T21:27:19.561Z,11.28
2019-04-21T21:30:03.021Z,11.85
2019-04-21T21:32:37.439Z,11.53
2019-04-21T21:35:13.085Z,11.22
2019-04-21T21:37:49.005Z,12.18
2019-04-21T21:40:26.842Z,11.80
2019-04-21T21:42:45.642Z,10.60
2019-04-21T21:45:25.151Z,10.82
2019-04-21T21:48:24.225Z,11.88
2019-04-21T21:50:49.189Z,10.50
2019-04-21T21:53:21.537Z,11.93
2019-04-21T21:55:53.291Z,11.70
2019-04-21T21:58:36.434Z,11.65
2019-04-21T22:01:08.761Z,11.60
2019-04-21T22:03:46.707Z,12.03
2019-04-21T22:06:23.129Z,12.63
2019-04-21T22:08:56.487Z,12.28
2019-04-21T22:11:31.789Z,10.72
2019-04-21T22:14:09.613Z,11.95
2019-04-21T22:16:50.824Z,11.85
2019-04-21T22:19:36.791Z,11.75
2019-04-21T22:22:09.773Z,11.80
2019-04-21T22:24:47.634Z,11.12
2019-04-21T22:27:07.182Z,11.90
2019-04-21T22:29:47.811Z,11.93
2019-04-21T22:32:22.900Z,11.60
2019-04-21T22:34:58.346Z,11.40
2019-04-21T22:37:41.373Z,11.63
2019-04-21T22:40:17.812Z,11.00
2019-04-21T22:42:47.369Z,11.35
2019-04-21T22:45:17.668Z,11.30
2019-04-21T22:47:52.156Z,10.63
2019-04-21T22:50:32.742Z,10.70
2019-04-21T22:53:09.698Z,11.22
2019-04-21T22:55:44.999Z,10.68
2019-04-21T22:58:25.772Z,10.98
2019-04-21T23:00:58.451Z,11.25
2019-04-21T23:03:32.533Z,10.98
2019-04-21T23:06:14.543Z,10.83
2019-04-21T23:08:45.601Z,11.08
2019-04-21T23:11:19.737Z,11.03
2019-04-21T23:14:04.035Z,11.70
2019-04-21T23:16:33.734Z,11.33
2019-04-21T23:19:20.045Z,11.10
2019-04-21T23:21:58.232Z,10.68
2019-04-21T23:24:42.959Z,11.63
2019-04-21T23:27:09.236Z,10.98
2019-04-21T23:30:06.371Z,11.20
2019-04-21T23:32:19.647Z,10.90
2019-04-21T23:34:45.953Z,10.98
2019-04-21T23:37:23.457Z,10.30
2019-04-21T23:40:05.713Z,10.23
2019-04-21T23:42:37.089Z,9.75
2019-04-21T23:45:09.193Z,9.68
2019-04-21T23:47:59.198Z,9.40
2019-04-21T23:50:33.056Z,9.70
2019-04-21T23:52:57.296Z,9.20
2019-04-21T23:55:33.190Z,8.55
2019-04-21T23:58:14.433Z,8.68
